Terminal Aerodrome Forecast
Issued by NWS

Current Version | Previous Version | Graphics & Text | Print | Product List | Glossary On
Versions: 1 2 3 4 5 6 7 8 9 10 11 12 13 14 15
573
FTUS41 KILN 162330
TAFLCK
TAF
KLCK 162330Z 1700/1724 25004KT P6SM SCT070 BKN200
     FM170300 14004KT P6SM FEW060 BKN150
     FM171500 23011KT P6SM FEW100 BKN250=

USA.gov is the U.S. government's official web portal to all federal, state and local government web resources and services.